Billings, MT

2:15 PM MDT on September 20, 2014 (GMT -0600)
Billings Logan International | Change Station
CLOSE
Current Station
Airport
Location: Billings,
Elevation: 3570 ft
Nearby Weather Stations

Elev 3570 ft 45.81 °N, 108.54 °W | Updated 22 minutes ago

Clear
Clear
74 °F
Feels Like 74 °F
N
8
Wind Variable Wind from NNE

Today
High -- | Low -- °F
--% Chance of Precip.
Yesterday
High -- | Low -- °F
Precip. -- in
6:58 AM 7:15 PM
Waning Crescent, 10% visible
Pressure 30.18 in
Visibility 10.0 miles
Clouds Few 10000 ft
Few 22000 ft
Dew Point 39 °F
Humidity 28%
Rainfall 0.00 in
Snow Depth 0 in , 0 in , 0 in
UV 6 out of 12
Pollen 5.30 out of 12
Air Quality Not available.
Flu Activity Not available.
METAR KBIL 201953Z 03007KT 10SM FEW100 FEW220 23/04 A3025 RMK AO2 SLP220 T02330039

More Conditions Fewer Conditions

Pressure 30.18 in
Visibility 10.0 miles
Clouds Few 10000 ft
Few 22000 ft
Dew Point 39 °F
Humidity 28%
Rainfall 0.00 in
Snow Depth 0 in , 0 in , 0 in
UV 6 out of 12
Pollen 5.30 out of 12
Air Quality Not available.
Flu Activity Not available.
METAR KBIL 201953Z 03007KT 10SM FEW100 FEW220 23/04 A3025 RMK AO2 SLP220 T02330039

More Conditions Fewer Conditions

10-Day Weather Forecast

Almanac

Astronomy

Sep. 20, 2014 Rise Set
Actual Time 6:58 AM MDT 7:15 PM MDT
Civil Twilight 6:28 AM MDT 7:44 PM MDT
Nautical Twilight 5:53 AM MDT 8:19 PM MDT
Astronomical Twilight 5:17 AM MDT 8:55 PM MDT
Moon 3:32 AM MDT 5:27 PM MDT
Length of Visible Light 13h 16m
Length of Day
12h 16m
Tomorrow will be 3m 12s shorter.
Waning Crescent, 10% of the Moon is Illuminated
Today
Waning Crescent
Sep 24
New
Oct 1
First Quarter
Oct 8
Full
Oct 15
Last Quarter

Today's Extremes

State Highs State Lows

Community

WunderPhotos

Upload Photos

1,754,927 photos uploaded!

WunderBlogs® & News

Nearby

Snow Depth

Station Depth Elevation
Brackett Creek 0 in 7320 ft
Waldron 0 in 5600 ft
Stuart Mountain 0 in 7400 ft
Nez Perce Camp 0 in 5650 ft
Emery Creek 0 in 4350 ft

Earthquake Activity

City Distance Mag. Time & Date
No recent earthquake activity has been reported nearby.
Minimum magnitude displayed is 2.5.

Coastal Water Temperatures

Place Temperature
No Stations Reporting

Nearby Weather Stations